Time;durP1;ratioP1;P1;durP2;ratioP2;P2;SDS_P1;SDS_P2;PMS_P1;PMS_P2;Temp;Humidity;BMP_temperature;BMP_pressure;BME280_temperature;BME280_humidity;BME280_pressure;Samples;Min_cycle;Max_cycle;Signal;HPM_P1;HPM_P2
2022/11/08 00:03:32;;;;;;;15.55;9.32;;;;;;;;;;6288440;22;20084;-81
2022/11/08 00:14:12;;;;;;;14.43;8.73;;;;;;;;;;6300842;22;20006;-82
2022/11/08 00:16:39;;;;;;;16.80;9.32;;;;;;;;;;6259534;22;20008;-82
2022/11/08 00:19:05;;;;;;;15.05;8.95;;;;;;;;;;6283664;22;19996;-82
2022/11/08 00:21:31;;;;;;;13.82;8.93;;;;;;;;;;6282692;22;20006;-82
2022/11/08 00:23:57;;;;;;;16.65;9.77;;;;;;;;;;6283965;22;20000;-82
2022/11/08 00:26:23;;;;;;;14.35;9.20;;;;;;;;;;6283527;22;19999;-82
2022/11/08 00:28:49;;;;;;;15.80;9.65;;;;;;;;;;6256129;22;20035;-81
2022/11/08 00:31:15;;;;;;;18.00;11.75;;;;;;;;;;6256294;22;20340;-82
2022/11/08 00:33:41;;;;;;;13.32;9.45;;;;;;;;;;6283760;22;20058;-82
2022/11/08 00:36:07;;;;;;;17.05;10.82;;;;;;;;;;6283209;22;20487;-82
2022/11/08 00:38:33;;;;;;;17.00;9.18;;;;;;;;;;6287996;22;19996;-81
2022/11/08 00:40:59;;;;;;;14.55;9.98;;;;;;;;;;6270197;22;20006;-81
2022/11/08 00:43:25;;;;;;;14.70;10.10;;;;;;;;;;6272614;22;20090;-79
2022/11/08 00:45:51;;;;;;;18.23;10.77;;;;;;;;;;6301176;22;20133;-81
2022/11/08 00:48:17;;;;;;;17.80;10.10;;;;;;;;;;6298865;22;19994;-79
2022/11/08 00:50:43;;;;;;;17.23;10.23;;;;;;;;;;6300618;22;19998;-81
2022/11/08 00:53:09;;;;;;;17.02;9.82;;;;;;;;;;6292658;22;20014;-81
2022/11/08 00:55:35;;;;;;;16.15;9.07;;;;;;;;;;6283079;22;20027;-81
2022/11/08 00:58:01;;;;;;;19.98;10.18;;;;;;;;;;6282582;22;20006;-81
2022/11/08 01:00:27;;;;;;;14.77;9.90;;;;;;;;;;6281739;22;20451;-81
2022/11/08 01:03:17;;;;;;;15.73;9.68;;;;;;;;;;6282182;22;20053;-84
2022/11/08 01:05:39;;;;;;;14.82;8.77;;;;;;;;;;6282008;22;20004;-81
2022/11/08 01:08:05;;;;;;;14.52;9.00;;;;;;;;;;6256630;22;20419;-81
2022/11/08 01:10:32;;;;;;;19.58;10.38;;;;;;;;;;6289700;22;20015;-80
2022/11/08 01:12:58;;;;;;;15.98;8.93;;;;;;;;;;6292416;22;19999;-84
2022/11/08 01:15:24;;;;;;;17.98;9.30;;;;;;;;;;6284186;22;20003;-80
2022/11/08 01:17:50;;;;;;;13.30;8.95;;;;;;;;;;6283643;22;20051;-82
2022/11/08 01:20:16;;;;;;;13.77;10.07;;;;;;;;;;6282331;22;20019;-82
2022/11/08 01:22:42;;;;;;;12.38;8.25;;;;;;;;;;6256791;22;20022;-82
2022/11/08 01:25:08;;;;;;;15.15;9.57;;;;;;;;;;6283280;22;20000;-82
2022/11/08 01:27:34;;;;;;;15.05;9.20;;;;;;;;;;6282041;22;20003;-82
2022/11/08 01:30:00;;;;;;;13.70;8.63;;;;;;;;;;6255564;22;20587;-82
2022/11/08 01:32:26;;;;;;;14.13;8.35;;;;;;;;;;6256121;22;20086;-82
2022/11/08 01:34:52;;;;;;;13.18;8.88;;;;;;;;;;6281952;22;20019;-80
2022/11/08 01:37:18;;;;;;;13.13;9.05;;;;;;;;;;6253992;22;20007;-81
2022/11/08 01:39:44;;;;;;;11.77;7.68;;;;;;;;;;6283130;22;20332;-80
2022/11/08 01:42:10;;;;;;;13.65;8.48;;;;;;;;;;6255577;22;20004;-82
2022/11/08 01:44:56;;;;;;;14.80;9.25;;;;;;;;;;6250787;23;20039;-82
2022/11/08 01:47:22;;;;;;;15.23;9.18;;;;;;;;;;6252668;23;20082;-82
2022/11/08 01:49:50;;;;;;;13.85;9.20;;;;;;;;;;6250489;23;20015;-82
2022/11/08 01:52:19;;;;;;;15.68;8.88;;;;;;;;;;6250822;23;20011;-82
2022/11/08 01:54:50;;;;;;;14.45;8.35;;;;;;;;;;6250954;23;20000;-82
2022/11/08 01:57:19;;;;;;;13.30;8.23;;;;;;;;;;6252831;22;20050;-82
2022/11/08 01:59:46;;;;;;;15.88;9.48;;;;;;;;;;6249686;23;20038;-81
2022/11/08 02:02:12;;;;;;;13.20;8.63;;;;;;;;;;6251378;23;20027;-82
2022/11/08 02:04:40;;;;;;;12.98;9.15;;;;;;;;;;6251362;23;20007;-82
2022/11/08 02:07:06;;;;;;;15.32;8.45;;;;;;;;;;6251397;23;20068;-80
2022/11/08 02:09:35;;;;;;;12.73;8.57;;;;;;;;;;6250579;23;20004;-81
2022/11/08 02:12:01;;;;;;;16.33;9.32;;;;;;;;;;6252583;23;20001;-82
2022/11/08 02:14:27;;;;;;;12.43;8.13;;;;;;;;;;6249029;23;20004;-82
2022/11/08 02:16:54;;;;;;;16.10;10.00;;;;;;;;;;6250383;23;20004;-82
2022/11/08 02:19:25;;;;;;;15.93;9.68;;;;;;;;;;6252028;23;19996;-81
2022/11/08 02:21:55;;;;;;;13.63;9.15;;;;;;;;;;6251001;23;19996;-81
2022/11/08 02:24:21;;;;;;;13.65;8.70;;;;;;;;;;6250197;23;20438;-81
2022/11/08 02:26:49;;;;;;;15.13;9.18;;;;;;;;;;6251882;23;20131;-82
2022/11/08 02:29:23;;;;;;;12.82;8.18;;;;;;;;;;6251282;23;20004;-82
2022/11/08 02:31:49;;;;;;;14.27;8.88;;;;;;;;;;6253445;22;20030;-79
2022/11/08 02:34:15;;;;;;;14.32;9.27;;;;;;;;;;6253435;23;20031;-82
2022/11/08 02:36:43;;;;;;;16.33;9.65;;;;;;;;;;6253508;23;20491;-82
2022/11/08 02:39:09;;;;;;;15.15;8.60;;;;;;;;;;6252634;23;19997;-82
2022/11/08 02:41:35;;;;;;;14.88;8.48;;;;;;;;;;6251979;23;20019;-82
2022/11/08 02:44:01;;;;;;;15.52;9.73;;;;;;;;;;6251195;23;20340;-82
2022/11/08 02:46:27;;;;;;;17.50;10.30;;;;;;;;;;6252484;23;20011;-82
2022/11/08 02:48:53;;;;;;;15.82;9.63;;;;;;;;;;6253437;23;20004;-82
2022/11/08 02:51:19;;;;;;;16.00;9.77;;;;;;;;;;6252703;23;20015;-82
2022/11/08 02:53:45;;;;;;;16.92;10.00;;;;;;;;;;6252305;23;20010;-82
2022/11/08 02:56:11;;;;;;;16.50;9.13;;;;;;;;;;6252651;23;20441;-82
2022/11/08 02:58:37;;;;;;;18.27;9.55;;;;;;;;;;6254029;23;20016;-82
2022/11/08 03:01:03;;;;;;;16.77;10.63;;;;;;;;;;6252654;23;19996;-82
2022/11/08 03:03:29;;;;;;;14.48;10.13;;;;;;;;;;6253103;23;20440;-81
2022/11/08 03:05:58;;;;;;;16.73;10.45;;;;;;;;;;6255880;23;20063;-81
2022/11/08 03:08:24;;;;;;;16.30;9.52;;;;;;;;;;6266029;23;20008;-82
2022/11/08 03:10:50;;;;;;;15.32;9.02;;;;;;;;;;6261819;23;20336;-82
2022/11/08 03:13:16;;;;;;;15.77;9.23;;;;;;;;;;6257535;23;20068;-82
2022/11/08 03:15:42;;;;;;;15.02;8.77;;;;;;;;;;6252037;23;20012;-82
2022/11/08 03:18:08;;;;;;;13.85;9.23;;;;;;;;;;6257692;23;19996;-81
2022/11/08 03:20:34;;;;;;;14.98;9.63;;;;;;;;;;6258119;23;20031;-82
2022/11/08 03:23:01;;;;;;;18.02;9.73;;;;;;;;;;6256079;23;20015;-82
2022/11/08 03:25:28;;;;;;;20.63;10.15;;;;;;;;;;6256518;23;19996;-81
2022/11/08 03:27:54;;;;;;;20.15;9.80;;;;;;;;;;6258046;23;20046;-82
2022/11/08 03:30:21;;;;;;;16.58;9.48;;;;;;;;;;6257869;23;20437;-82
2022/11/08 03:32:47;;;;;;;18.13;9.75;;;;;;;;;;6257650;23;20000;-81
2022/11/08 03:35:14;;;;;;;21.98;9.30;;;;;;;;;;6255267;23;20011;-81
2022/11/08 03:37:40;;;;;;;14.88;8.85;;;;;;;;;;6254160;23;20487;-82
2022/11/08 03:40:06;;;;;;;15.38;9.25;;;;;;;;;;6255742;23;19996;-81
2022/11/08 03:42:32;;;;;;;12.93;8.35;;;;;;;;;;6254530;23;20235;-82
2022/11/08 03:44:58;;;;;;;14.90;8.85;;;;;;;;;;6281541;22;20355;-81
2022/11/08 03:47:24;;;;;;;15.93;9.02;;;;;;;;;;6285832;22;20031;-82
2022/11/08 03:49:50;;;;;;;17.83;10.38;;;;;;;;;;6287706;22;20000;-80
2022/11/08 03:52:16;;;;;;;15.10;8.80;;;;;;;;;;6287590;22;20343;-82
2022/11/08 03:54:42;;;;;;;17.20;9.73;;;;;;;;;;6287329;22;20003;-81
2022/11/08 03:57:08;;;;;;;14.90;10.38;;;;;;;;;;6288627;22;20008;-81
2022/11/08 03:59:34;;;;;;;16.75;10.40;;;;;;;;;;6261734;22;20000;-81
2022/11/08 04:02:00;;;;;;;17.05;10.57;;;;;;;;;;6287977;22;20019;-82
2022/11/08 04:04:26;;;;;;;17.50;10.88;;;;;;;;;;6262784;22;20038;-82
2022/11/08 04:06:52;;;;;;;17.02;9.63;;;;;;;;;;6287225;22;20023;-82
2022/11/08 04:09:18;;;;;;;20.50;10.43;;;;;;;;;;6289277;22;19999;-81
2022/11/08 04:17:13;;;;;;;21.92;11.15;;;;;;;;;;6287086;22;20030;-82
2022/11/08 04:22:24;;;;;;;16.55;10.23;;;;;;;;;;6297862;22;20019;-82
2022/11/08 04:24:50;;;;;;;16.10;11.57;;;;;;;;;;6287155;22;20486;-82
2022/11/08 04:27:17;;;;;;;19.60;13.38;;;;;;;;;;6259628;22;20012;-80
2022/11/08 04:29:43;;;;;;;21.13;13.57;;;;;;;;;;6257235;22;20007;-78
2022/11/08 04:32:09;;;;;;;23.92;14.45;;;;;;;;;;6283974;22;20004;-82
2022/11/08 04:34:35;;;;;;;31.40;16.23;;;;;;;;;;6255613;22;20014;-82
2022/11/08 04:37:01;;;;;;;30.10;14.65;;;;;;;;;;6283757;22;20091;-82
2022/11/08 04:39:27;;;;;;;31.25;15.25;;;;;;;;;;6282517;22;20030;-82
2022/11/08 04:41:53;;;;;;;29.40;15.77;;;;;;;;;;6254681;22;20047;-83
2022/11/08 04:44:19;;;;;;;27.70;15.27;;;;;;;;;;6249954;23;20024;-83
2022/11/08 04:46:45;;;;;;;37.47;18.10;;;;;;;;;;6252815;23;20000;-82
2022/11/08 04:49:14;;;;;;;32.13;16.88;;;;;;;;;;6258182;23;20055;-81
2022/11/08 04:51:40;;;;;;;38.45;17.90;;;;;;;;;;6256917;23;20004;-82
2022/11/08 04:54:06;;;;;;;43.25;18.50;;;;;;;;;;6261003;23;19988;-83
2022/11/08 04:56:32;;;;;;;38.38;18.92;;;;;;;;;;6257891;22;20080;-83
2022/11/08 04:58:59;;;;;;;39.05;18.83;;;;;;;;;;6257261;23;20000;-84
2022/11/08 05:01:26;;;;;;;34.53;19.17;;;;;;;;;;6256841;23;20008;-83
2022/11/08 05:03:53;;;;;;;44.35;20.02;;;;;;;;;;6268016;23;20011;-82
2022/11/08 05:06:20;;;;;;;34.83;18.33;;;;;;;;;;6257851;23;20799;-84
2022/11/08 05:08:46;;;;;;;36.38;19.40;;;;;;;;;;6255484;23;20000;-84
2022/11/08 05:11:14;;;;;;;37.72;18.00;;;;;;;;;;6255491;23;20004;-81
2022/11/08 05:13:40;;;;;;;41.80;22.02;;;;;;;;;;6256024;23;20026;-84
2022/11/08 05:16:08;;;;;;;46.97;23.05;;;;;;;;;;6255229;23;20004;-84
2022/11/08 05:18:34;;;;;;;45.25;21.67;;;;;;;;;;6250836;23;20026;-83
2022/11/08 05:23:46;;;;;;;33.38;19.40;;;;;;;;;;6253460;23;20054;-84
2022/11/08 05:26:13;;;;;;;29.02;16.45;;;;;;;;;;6253707;23;20087;-84
2022/11/08 05:28:39;;;;;;;41.58;19.45;;;;;;;;;;6253779;23;20004;-84
2022/11/08 05:31:06;;;;;;;46.70;20.55;;;;;;;;;;6256381;23;20030;-84
2022/11/08 05:33:32;;;;;;;41.75;20.92;;;;;;;;;;6254326;23;20004;-84
2022/11/08 05:36:02;;;;;;;45.85;21.48;;;;;;;;;;6254818;23;20020;-84
2022/11/08 05:38:29;;;;;;;37.35;20.02;;;;;;;;;;6251885;23;20000;-84
2022/11/08 05:40:55;;;;;;;46.65;19.90;;;;;;;;;;6251748;23;20004;-84
2022/11/08 05:43:21;;;;;;;42.65;20.33;;;;;;;;;;6258242;22;20022;-83
2022/11/08 05:45:47;;;;;;;47.00;20.20;;;;;;;;;;6284686;22;19999;-84
2022/11/08 05:48:13;;;;;;;44.75;20.15;;;;;;;;;;6286403;22;20003;-83
2022/11/08 05:50:41;;;;;;;33.65;17.38;;;;;;;;;;6284967;22;20053;-84
2022/11/08 05:53:07;;;;;;;37.70;19.27;;;;;;;;;;6283352;22;20003;-84
2022/11/08 05:55:33;;;;;;;37.90;19.63;;;;;;;;;;6283716;22;20003;-84
2022/11/08 05:57:59;;;;;;;29.33;17.92;;;;;;;;;;6282142;22;20035;-84
2022/11/08 06:00:25;;;;;;;33.65;19.05;;;;;;;;;;6282061;22;20442;-81
2022/11/08 06:02:51;;;;;;;31.88;16.65;;;;;;;;;;6281962;22;20041;-83
2022/11/08 06:05:17;;;;;;;37.28;18.85;;;;;;;;;;6283574;22;20003;-84
2022/11/08 06:07:43;;;;;;;29.40;16.73;;;;;;;;;;6283216;22;19996;-84
2022/11/08 06:10:09;;;;;;;37.38;16.98;;;;;;;;;;6284980;22;20015;-84
2022/11/08 06:12:37;;;;;;;40.90;19.13;;;;;;;;;;6284375;22;20004;-83
2022/11/08 06:15:03;;;;;;;28.98;17.02;;;;;;;;;;6284747;22;20007;-82
2022/11/08 06:17:29;;;;;;;42.22;18.70;;;;;;;;;;6256449;22;20011;-84
2022/11/08 06:19:55;;;;;;;37.05;18.75;;;;;;;;;;6283741;22;20000;-84
2022/11/08 06:22:21;;;;;;;38.30;18.70;;;;;;;;;;6282459;22;20451;-84
2022/11/08 06:24:47;;;;;;;40.30;20.70;;;;;;;;;;6282445;22;20454;-84
2022/11/08 06:27:14;;;;;;;38.70;19.98;;;;;;;;;;6284054;22;20099;-84
2022/11/08 06:29:41;;;;;;;37.17;19.00;;;;;;;;;;6256686;22;20008;-84
2022/11/08 06:32:08;;;;;;;47.58;21.05;;;;;;;;;;6283803;22;20007;-85
2022/11/08 06:34:34;;;;;;;39.10;20.48;;;;;;;;;;6284056;22;20004;-84
2022/11/08 06:37:00;;;;;;;47.05;19.17;;;;;;;;;;6255672;22;20074;-84
2022/11/08 06:39:26;;;;;;;44.50;20.35;;;;;;;;;;6284274;22;20049;-83
2022/11/08 06:41:52;;;;;;;47.92;20.42;;;;;;;;;;6282639;22;19996;-84
2022/11/08 06:44:18;;;;;;;49.75;20.58;;;;;;;;;;6282843;22;20018;-85
2022/11/08 06:46:44;;;;;;;45.92;21.83;;;;;;;;;;6255793;22;20374;-84
2022/11/08 06:49:10;;;;;;;46.38;21.42;;;;;;;;;;6256151;22;20012;-85
2022/11/08 06:51:36;;;;;;;42.58;20.42;;;;;;;;;;6284207;22;20515;-85
2022/11/08 06:54:05;;;;;;;42.17;21.63;;;;;;;;;;6273582;22;19992;-82
2022/11/08 06:56:31;;;;;;;51.90;21.65;;;;;;;;;;6295257;22;20498;-84
2022/11/08 06:58:57;;;;;;;40.65;21.25;;;;;;;;;;6296868;22;20052;-84
2022/11/08 07:01:24;;;;;;;51.95;24.10;;;;;;;;;;6269753;22;20007;-84
2022/11/08 07:03:50;;;;;;;65.93;24.40;;;;;;;;;;6257873;22;20004;-85
2022/11/08 07:06:15;;;;;;;45.85;22.83;;;;;;;;;;6257342;22;20447;-85
2022/11/08 07:08:42;;;;;;;56.00;25.17;;;;;;;;;;6262441;22;20008;-84
2022/11/08 07:11:08;;;;;;;52.60;23.52;;;;;;;;;;6262462;22;20000;-84
2022/11/08 07:13:35;;;;;;;48.30;24.08;;;;;;;;;;6289444;22;20000;-85
2022/11/08 07:16:01;;;;;;;51.90;24.00;;;;;;;;;;6263555;22;20030;-84
2022/11/08 07:18:28;;;;;;;53.00;26.67;;;;;;;;;;6298991;22;20004;-83
2022/11/08 07:20:57;;;;;;;51.42;25.98;;;;;;;;;;6302215;22;20015;-82
2022/11/08 07:23:23;;;;;;;53.10;27.40;;;;;;;;;;6275495;22;20000;-82
2022/11/08 07:25:50;;;;;;;55.65;27.65;;;;;;;;;;6297847;22;20010;-84
2022/11/08 07:28:17;;;;;;;54.53;26.75;;;;;;;;;;6292010;22;20000;-83
2022/11/08 07:30:43;;;;;;;59.95;27.13;;;;;;;;;;6291521;22;19996;-85
2022/11/08 07:33:09;;;;;;;68.93;27.17;;;;;;;;;;6295162;22;19999;-81
2022/11/08 07:35:35;;;;;;;70.30;26.42;;;;;;;;;;6304419;22;20007;-81
2022/11/08 07:38:01;;;;;;;62.92;26.65;;;;;;;;;;6300239;22;20008;-85
2022/11/08 07:40:27;;;;;;;76.90;28.02;;;;;;;;;;6264608;22;20010;-83
2022/11/08 07:42:56;;;;;;;77.45;27.67;;;;;;;;;;6261775;22;20086;-86
2022/11/08 07:45:22;;;;;;;74.53;27.58;;;;;;;;;;6290014;22;20004;-84
2022/11/08 07:47:56;;;;;;;70.65;30.17;;;;;;;;;;6264266;22;20062;-84
2022/11/08 07:50:22;;;;;;;73.43;28.75;;;;;;;;;;6292119;22;20055;-85
2022/11/08 07:52:51;;;;;;;77.30;27.98;;;;;;;;;;6263086;22;20015;-85
2022/11/08 07:55:17;;;;;;;78.20;30.50;;;;;;;;;;6290665;22;20000;-83
2022/11/08 07:57:43;;;;;;;67.20;29.67;;;;;;;;;;6289981;22;19999;-85
2022/11/08 08:00:09;;;;;;;80.97;31.25;;;;;;;;;;6262741;22;20007;-85
2022/11/08 08:02:35;;;;;;;83.45;30.63;;;;;;;;;;6290923;22;20018;-85
2022/11/08 08:05:01;;;;;;;88.05;32.70;;;;;;;;;;6262393;22;20267;-85
2022/11/08 08:07:27;;;;;;;75.35;29.13;;;;;;;;;;6289139;22;20022;-86
2022/11/08 08:09:53;;;;;;;79.00;33.28;;;;;;;;;;6287051;22;20055;-85
2022/11/08 08:12:19;;;;;;;74.18;31.27;;;;;;;;;;6287000;22;19996;-85
2022/11/08 08:14:45;;;;;;;92.55;33.60;;;;;;;;;;6261187;22;20080;-84
2022/11/08 08:17:11;;;;;;;101.75;34.53;;;;;;;;;;6288992;22;19996;-85
2022/11/08 08:19:37;;;;;;;88.55;31.80;;;;;;;;;;6262224;22;20015;-85
2022/11/08 08:22:03;;;;;;;93.55;33.05;;;;;;;;;;6289401;22;19996;-85
2022/11/08 08:24:29;;;;;;;87.72;32.50;;;;;;;;;;6262755;22;20038;-85
2022/11/08 08:26:55;;;;;;;90.57;32.90;;;;;;;;;;6260526;22;20003;-85
2022/11/08 08:29:21;;;;;;;80.65;32.92;;;;;;;;;;6262574;22;20004;-85
2022/11/08 08:31:47;;;;;;;77.50;29.27;;;;;;;;;;6285269;22;20004;-85
2022/11/08 08:34:14;;;;;;;69.43;28.10;;;;;;;;;;6258842;22;20245;-85
2022/11/08 08:36:41;;;;;;;74.07;28.55;;;;;;;;;;6260116;22;20007;-85
2022/11/08 08:39:08;;;;;;;77.20;29.25;;;;;;;;;;6259294;22;20066;-84
2022/11/08 08:41:34;;;;;;;76.50;27.65;;;;;;;;;;6287411;22;20006;-85
2022/11/08 08:44:00;;;;;;;79.80;28.75;;;;;;;;;;6285044;22;20004;-84
2022/11/08 08:46:26;;;;;;;71.53;29.38;;;;;;;;;;6286460;22;20185;-85
2022/11/08 08:48:52;;;;;;;70.30;25.90;;;;;;;;;;6269694;22;20022;-85
2022/11/08 08:51:18;;;;;;;65.47;28.17;;;;;;;;;;6265591;22;20008;-85
2022/11/08 08:53:44;;;;;;;68.95;25.77;;;;;;;;;;6263280;22;20000;-85
2022/11/08 08:56:11;;;;;;;65.57;27.50;;;;;;;;;;6289965;22;20018;-83
2022/11/08 08:58:37;;;;;;;59.03;26.27;;;;;;;;;;6262911;22;20000;-83
2022/11/08 09:01:04;;;;;;;53.40;25.77;;;;;;;;;;6289195;22;20007;-83
2022/11/08 09:03:30;;;;;;;64.78;26.52;;;;;;;;;;6285759;22;20000;-83
2022/11/08 09:05:59;;;;;;;53.50;24.50;;;;;;;;;;6259763;22;20067;-82
2022/11/08 09:08:26;;;;;;;61.95;25.60;;;;;;;;;;6290462;22;20078;-83
2022/11/08 09:10:53;;;;;;;62.33;26.58;;;;;;;;;;6286140;22;20248;-84
2022/11/08 09:13:19;;;;;;;59.35;25.25;;;;;;;;;;6288085;22;19998;-83
2022/11/08 09:15:45;;;;;;;54.55;25.38;;;;;;;;;;6287640;22;20000;-82
2022/11/08 09:18:11;;;;;;;60.85;26.33;;;;;;;;;;6262164;22;20316;-83
2022/11/08 09:20:38;;;;;;;51.53;24.73;;;;;;;;;;6288768;22;20034;-83
2022/11/08 09:23:04;;;;;;;61.95;25.45;;;;;;;;;;6288509;22;20389;-84
2022/11/08 09:25:30;;;;;;;52.38;23.95;;;;;;;;;;6288051;22;20598;-83
2022/11/08 09:27:56;;;;;;;52.45;23.02;;;;;;;;;;6287018;22;20000;-82
2022/11/08 09:30:22;;;;;;;51.42;23.25;;;;;;;;;;6289009;22;20474;-83
2022/11/08 09:32:48;;;;;;;54.38;23.98;;;;;;;;;;6287742;22;20000;-82
2022/11/08 09:35:14;;;;;;;52.03;22.13;;;;;;;;;;6261114;22;20071;-84
2022/11/08 09:37:40;;;;;;;51.63;21.90;;;;;;;;;;6288681;22;20059;-86
2022/11/08 09:40:06;;;;;;;52.17;22.98;;;;;;;;;;6287453;22;19996;-82
2022/11/08 09:42:32;;;;;;;62.13;24.52;;;;;;;;;;6261500;22;20006;-82
2022/11/08 09:44:58;;;;;;;48.78;22.85;;;;;;;;;;6259715;22;20047;-83
2022/11/08 09:47:25;;;;;;;55.90;24.35;;;;;;;;;;6260280;22;20038;-84
2022/11/08 09:50:06;;;;;;;51.55;23.70;;;;;;;;;;6258987;22;20011;-84
2022/11/08 09:52:34;;;;;;;49.15;22.95;;;;;;;;;;6285336;22;20489;-84
2022/11/08 09:55:20;;;;;;;50.38;22.33;;;;;;;;;;6257250;22;20003;-84
2022/11/08 09:58:07;;;;;;;42.63;19.48;;;;;;;;;;6284597;22;20012;-84
2022/11/08 10:00:35;;;;;;;41.20;19.85;;;;;;;;;;6283855;22;20000;-84
2022/11/08 10:03:02;;;;;;;41.90;21.25;;;;;;;;;;6283923;22;19996;-85
2022/11/08 10:05:33;;;;;;;40.08;19.83;;;;;;;;;;6284653;22;20011;-82
2022/11/08 10:08:18;;;;;;;40.78;19.98;;;;;;;;;;6284679;22;20019;-83
2022/11/08 10:11:03;;;;;;;40.50;19.70;;;;;;;;;;6281657;22;20003;-83
2022/11/08 10:13:38;;;;;;;37.80;20.02;;;;;;;;;;6255182;22;20003;-83
2022/11/08 10:16:23;;;;;;;43.75;20.35;;;;;;;;;;6255749;22;20014;-82
2022/11/08 10:18:49;;;;;;;39.70;19.05;;;;;;;;;;6282554;22;20003;-82
2022/11/08 10:21:17;;;;;;;42.58;19.77;;;;;;;;;;6283056;22;20004;-82
2022/11/08 10:23:45;;;;;;;44.10;21.80;;;;;;;;;;6285276;22;20018;-83
2022/11/08 10:26:11;;;;;;;39.88;19.92;;;;;;;;;;6254825;22;20336;-82
2022/11/08 10:28:40;;;;;;;41.33;20.15;;;;;;;;;;6281891;22;20000;-82
2022/11/08 10:31:06;;;;;;;36.78;19.58;;;;;;;;;;6283473;22;20072;-83
2022/11/08 10:33:37;;;;;;;38.97;18.45;;;;;;;;;;6254560;22;20004;-83
2022/11/08 10:36:23;;;;;;;39.88;19.25;;;;;;;;;;6281163;22;20000;-82
2022/11/08 10:38:52;;;;;;;41.70;19.73;;;;;;;;;;6255655;22;20004;-82
2022/11/08 10:41:24;;;;;;;40.55;21.15;;;;;;;;;;6256656;22;20054;-83
2022/11/08 10:43:56;;;;;;;41.40;20.10;;;;;;;;;;6290915;22;20026;-81
2022/11/08 10:46:22;;;;;;;42.38;20.70;;;;;;;;;;6287427;22;20003;-82
2022/11/08 10:48:48;;;;;;;37.40;19.85;;;;;;;;;;6285449;22;20000;-84
2022/11/08 10:51:14;;;;;;;43.92;19.65;;;;;;;;;;6282371;22;20011;-83
2022/11/08 10:53:44;;;;;;;37.55;20.15;;;;;;;;;;6256436;22;20019;-81
2022/11/08 10:56:10;;;;;;;44.13;20.13;;;;;;;;;;6293652;22;20091;-79
2022/11/08 10:58:40;;;;;;;43.45;21.15;;;;;;;;;;6275210;22;20003;-82
2022/11/08 11:01:20;;;;;;;45.78;20.50;;;;;;;;;;6288172;22;20074;-82
2022/11/08 11:03:47;;;;;;;42.72;20.55;;;;;;;;;;6261327;22;20004;-81
2022/11/08 11:06:39;;;;;;;42.63;20.23;;;;;;;;;;6259731;22;20010;-81
2022/11/08 11:09:18;;;;;;;45.03;20.23;;;;;;;;;;6282667;22;20014;-85
2022/11/08 11:11:44;;;;;;;45.97;21.02;;;;;;;;;;6257918;22;20008;-83
2022/11/08 11:14:15;;;;;;;40.78;22.13;;;;;;;;;;6283018;22;20004;-82
2022/11/08 11:16:47;;;;;;;39.50;20.40;;;;;;;;;;6256706;22;20010;-83
2022/11/08 11:19:14;;;;;;;40.65;20.67;;;;;;;;;;6285542;22;19996;-84
2022/11/08 11:21:42;;;;;;;38.60;19.27;;;;;;;;;;6283633;22;20026;-82
2022/11/08 11:24:10;;;;;;;36.30;19.55;;;;;;;;;;6255281;22;20445;-81
2022/11/08 11:26:55;;;;;;;38.97;20.23;;;;;;;;;;6281592;22;20444;-81
2022/11/08 11:29:21;;;;;;;36.42;20.50;;;;;;;;;;6283781;22;20411;-82
2022/11/08 11:31:49;;;;;;;41.88;21.48;;;;;;;;;;6284543;22;20081;-84
2022/11/08 11:34:18;;;;;;;36.00;19.40;;;;;;;;;;6257563;22;20629;-82
2022/11/08 11:36:52;;;;;;;41.58;20.30;;;;;;;;;;6283268;22;20078;-82
2022/11/08 11:39:29;;;;;;;37.42;19.42;;;;;;;;;;6281243;22;20113;-82
2022/11/08 11:42:00;;;;;;;31.80;18.83;;;;;;;;;;6283086;22;19996;-83
2022/11/08 11:44:41;;;;;;;34.03;20.50;;;;;;;;;;6283503;22;20003;-81
2022/11/08 11:47:39;;;;;;;33.22;18.38;;;;;;;;;;6282678;22;20000;-81
2022/11/08 11:50:24;;;;;;;37.67;18.30;;;;;;;;;;6200595;22;20371;-83
2022/11/08 11:52:50;;;;;;;29.67;16.30;;;;;;;;;;6255676;22;20003;-80
2022/11/08 11:55:16;;;;;;;33.53;18.75;;;;;;;;;;6282996;22;20007;-80
2022/11/08 11:57:45;;;;;;;34.17;17.52;;;;;;;;;;6255345;22;20056;-82
2022/11/08 12:00:13;;;;;;;33.53;18.17;;;;;;;;;;6281574;22;20099;-81
2022/11/08 12:03:08;;;;;;;35.10;20.83;;;;;;;;;;6255517;22;20004;-83
2022/11/08 12:05:45;;;;;;;37.17;18.75;;;;;;;;;;6148413;22;20002;-81
2022/11/08 12:08:11;;;;;;;30.92;16.92;;;;;;;;;;6282350;22;20006;-82
2022/11/08 12:10:56;;;;;;;39.17;19.27;;;;;;;;;;6282871;22;20396;-83
2022/11/08 12:13:23;;;;;;;36.35;18.65;;;;;;;;;;6283111;22;20035;-82
2022/11/08 12:15:52;;;;;;;33.50;18.75;;;;;;;;;;6283768;22;20016;-80
2022/11/08 12:18:41;;;;;;;31.80;17.48;;;;;;;;;;6283995;22;20082;-80
2022/11/08 12:21:14;;;;;;;36.00;18.08;;;;;;;;;;6213312;22;20320;-82
2022/11/08 12:23:53;;;;;;;39.75;18.67;;;;;;;;;;6256186;22;20288;-82
2022/11/08 12:26:25;;;;;;;34.78;17.85;;;;;;;;;;6282541;22;20027;-81
2022/11/08 12:29:09;;;;;;;30.02;18.13;;;;;;;;;;6283501;22;20426;-83
2022/11/08 12:31:44;;;;;;;33.60;18.33;;;;;;;;;;6283355;22;20004;-81
2022/11/08 12:34:36;;;;;;;31.60;18.02;;;;;;;;;;6282937;22;20007;-81
2022/11/08 12:37:05;;;;;;;29.20;17.17;;;;;;;;;;6231771;22;20003;-82
2022/11/08 12:39:49;;;;;;;34.10;18.77;;;;;;;;;;6283637;22;20257;-83
2022/11/08 12:42:33;;;;;;;29.65;17.52;;;;;;;;;;6283581;22;20120;-83
2022/11/08 12:45:18;;;;;;;30.73;16.92;;;;;;;;;;6282203;22;20062;-83
2022/11/08 12:47:48;;;;;;;59.35;32.03;;;;;;;;;;6282071;22;20004;-82
2022/11/08 12:50:14;;;;;;;53.15;27.55;;;;;;;;;;6253693;22;20000;-80
2022/11/08 12:52:40;;;;;;;49.85;25.42;;;;;;;;;;6281956;22;20008;-82
2022/11/08 12:55:09;;;;;;;36.60;20.05;;;;;;;;;;6253223;22;19996;-80
2022/11/08 12:57:35;;;;;;;33.30;18.73;;;;;;;;;;6279200;22;20099;-81
2022/11/08 13:00:04;;;;;;;32.72;17.67;;;;;;;;;;6252246;22;20198;-81
2022/11/08 13:02:32;;;;;;;32.38;17.70;;;;;;;;;;6279752;22;20011;-80
2022/11/08 13:05:18;;;;;;;31.25;16.85;;;;;;;;;;6279815;22;20180;-80
2022/11/08 13:07:48;;;;;;;33.03;17.08;;;;;;;;;;6251611;22;20034;-80
2022/11/08 13:10:27;;;;;;;31.80;16.80;;;;;;;;;;6253564;22;20004;-79
2022/11/08 13:13:02;;;;;;;30.67;17.48;;;;;;;;;;6284404;22;20004;-79
2022/11/08 13:15:28;;;;;;;31.90;17.17;;;;;;;;;;6262688;22;20431;-80
2022/11/08 13:18:06;;;;;;;32.80;17.40;;;;;;;;;;6286467;22;20082;-81
2022/11/08 13:20:41;;;;;;;31.90;17.50;;;;;;;;;;6278968;22;20057;-80
2022/11/08 13:23:11;;;;;;;28.73;16.77;;;;;;;;;;6280794;22;20038;-81
2022/11/08 13:25:38;;;;;;;31.63;18.23;;;;;;;;;;6281692;22;20444;-82
2022/11/08 13:28:23;;;;;;;29.70;17.60;;;;;;;;;;6278435;22;20079;-82
2022/11/08 13:30:55;;;;;;;34.25;18.17;;;;;;;;;;6278616;22;20003;-82
2022/11/08 13:33:25;;;;;;;33.22;18.08;;;;;;;;;;6278238;22;20004;-82
2022/11/08 13:36:09;;;;;;;34.50;17.95;;;;;;;;;;6280095;22;20720;-81
2022/11/08 13:38:55;;;;;;;37.13;19.75;;;;;;;;;;6286963;22;20006;-80
2022/11/08 13:41:22;;;;;;;30.67;17.75;;;;;;;;;;6261931;22;20000;-80
2022/11/08 13:43:48;;;;;;;34.53;17.60;;;;;;;;;;6288975;22;20012;-80
2022/11/08 13:46:26;;;;;;;29.23;18.17;;;;;;;;;;6281828;22;20004;-81
2022/11/08 13:49:02;;;;;;;33.58;19.17;;;;;;;;;;6280040;22;20055;-82
2022/11/08 13:51:31;;;;;;;36.65;19.23;;;;;;;;;;6280210;22;19999;-82
2022/11/08 13:53:59;;;;;;;34.50;19.77;;;;;;;;;;6280380;22;20344;-81
2022/11/08 13:56:45;;;;;;;33.28;19.13;;;;;;;;;;6279212;22;20004;-80
2022/11/08 13:59:34;;;;;;;34.80;18.30;;;;;;;;;;6252695;22;20474;-81
2022/11/08 14:02:19;;;;;;;37.50;19.65;;;;;;;;;;6259440;22;20022;-80
2022/11/08 14:04:45;;;;;;;34.85;17.58;;;;;;;;;;6280281;22;19996;-79
2022/11/08 14:07:11;;;;;;;32.72;18.27;;;;;;;;;;6281232;22;20026;-79
2022/11/08 14:09:49;;;;;;;30.55;18.20;;;;;;;;;;6253971;22;20440;-80
2022/11/08 14:12:33;;;;;;;37.42;20.90;;;;;;;;;;6279364;22;20046;-80
2022/11/08 14:15:06;;;;;;;39.78;19.80;;;;;;;;;;6278882;22;20003;-80
2022/11/08 14:17:50;;;;;;;32.80;19.15;;;;;;;;;;6279316;22;20061;-80
2022/11/08 14:20:18;;;;;;;32.38;19.02;;;;;;;;;;6279419;22;19992;-80
2022/11/08 14:22:45;;;;;;;35.83;18.10;;;;;;;;;;6280118;22;19995;-82
2022/11/08 14:25:17;;;;;;;33.33;18.35;;;;;;;;;;6252523;22;19999;-80
2022/11/08 14:27:43;;;;;;;33.03;18.65;;;;;;;;;;6280222;22;20031;-80
2022/11/08 14:30:19;;;;;;;32.20;18.98;;;;;;;;;;6280539;22;20000;-80
2022/11/08 14:32:46;;;;;;;35.22;18.73;;;;;;;;;;6281057;22;20007;-81
2022/11/08 14:35:13;;;;;;;33.72;18.40;;;;;;;;;;6252464;22;20007;-80
2022/11/08 14:37:41;;;;;;;33.75;18.55;;;;;;;;;;6279615;22;20034;-80
2022/11/08 14:40:16;;;;;;;28.02;17.08;;;;;;;;;;6279520;22;20003;-81
2022/11/08 14:42:43;;;;;;;32.83;18.13;;;;;;;;;;6280019;22;20057;-81
2022/11/08 14:45:14;;;;;;;35.10;19.48;;;;;;;;;;6279841;22;20015;-81
2022/11/08 14:47:41;;;;;;;29.92;17.80;;;;;;;;;;6279742;22;20006;-81
2022/11/08 14:50:23;;;;;;;30.30;16.95;;;;;;;;;;6280149;22;20003;-81